Date,TemperatureHighF,TemperatureAvgF,TemperatureLowF,DewpointHighF,DewpointAvgF,DewpointLowF,HumidityHigh,HumidityAvg,HumidityLow,PressureMaxIn,PressureMinIn,WindSpeedMaxMPH,WindSpeedAvgMPH,GustSpeedMaxMPH,PrecipitationSumIn
2014-1-1,42,33,23,32,25,16,87,74,58,30.72,30.62,4,-12,4,0.00
2014-1-2,43,33,23,36,29,19,88,83,73,30.70,30.57,4,-12,4,0.00
2014-1-3,48,36,23,37,28,20,89,76,53,30.59,30.41,7,-12,7,0.00
2014-1-4,46,34,24,29,18,-12,82,56,8,30.66,30.41,40,-6,49,0.00
2014-1-5,44,30,19,23,16,8,73,55,40,30.80,30.65,4,-12,4,0.00
2014-1-6,41,33,19,30,21,10,82,61,36,30.84,30.64,5,-12,5,0.00
2014-1-7,49,40,31,31,23,15,71,52,30,30.64,30.40,13,-11,14,0.00
2014-1-8,46,38,29,30,22,12,77,53,33,30.47,30.37,8,-16,9,0.00
2014-1-9,43,37,31,33,26,11,88,66,34,30.53,30.38,12,-12,13,0.00
2014-1-10,48,37,26,38,29,23,89,74,44,30.66,30.51,5,-12,5,0.00
2014-1-11,44,35,27,34,30,23,93,81,61,30.59,30.38,17,-11,18,0.02
2014-1-12,38,32,23,26,20,13,85,64,41,30.89,30.53,27,-9,29,0.02
2014-1-13,41,31,21,32,23,16,85,72,53,31.05,30.88,5,-12,5,0.00
2014-1-14,49,35,22,35,21,13,75,58,30,31.11,30.97,19,-15,20,0.00
2014-1-15,52,36,24,28,17,9,70,48,20,30.97,30.82,25,-14,26,0.00
2014-1-16,51,35,22,32,16,6,64,48,16,30.86,30.73,21,-10,21,0.00
2014-1-17,43,33,22,32,22,13,77,65,51,30.77,30.66,4,-16,4,0.00
2014-1-18,45,33,22,34,24,16,80,71,43,30.75,30.64,4,-17,4,0.00
2014-1-19,41,32,21,36,25,15,88,76,54,30.71,30.59,4,-16,4,0.00
2014-1-20,41,32,20,33,22,12,79,67,50,30.82,30.69,4,-20,4,0.00
2014-1-21,43,31,20,30,22,11,75,67,48,30.84,30.71,5,-12,5,0.00
2014-1-22,42,32,21,34,23,12,80,69,54,30.76,30.48,6,-12,6,0.00
2014-1-23,38,32,21,27,21,13,81,63,41,30.69,30.45,35,-4,36,0.00
2014-1-24,45,35,25,28,23,17,82,62,42,30.78,30.67,20,-11,22,0.00
2014-1-25,42,32,22,35,25,18,84,73,61,30.80,30.66,5,-12,5,0.00
2014-1-26,42,33,22,33,23,15,79,68,52,30.69,30.51,4,-11,4,0.00
2014-1-27,44,35,23,34,27,15,78,71,58,30.66,30.55,7,-11,8,0.00
2014-1-28,50,42,34,40,34,25,90,74,62,30.61,30.51,4,-12,5,0.00
2014-1-29,52,43,35,42,39,32,97,87,63,30.53,30.13,18,-11,21,0.47
2014-1-30,40,31,26,39,30,25,97,96,91,30.20,30.02,19,-12,20,0.62
2014-1-31,33,26,16,30,20,13,96,79,61,30.46,30.19,18,-11,20,0.00
2014-2-1,32,22,9,23,16,6,91,79,50,30.58,30.46,6,-16,6,0.00
2014-2-2,30,24,13,26,21,9,94,87,73,30.51,30.30,5,-12,5,0.00
2014-2-3,33,26,19,24,21,16,91,80,59,30.39,30.30,9,-16,11,0.00
2014-2-4,33,24,14,21,16,10,87,72,42,30.53,30.38,6,-11,6,0.00
2014-2-5,40,29,14,24,17,8,83,62,33,30.54,30.37,10,-12,10,0.00
2014-2-6,42,33,26,31,27,22,90,78,62,30.37,30.14,12,-10,12,0.02
2014-2-7,36,33,29,33,28,21,91,81,65,30.33,30.18,20,-9,24,0.08
2014-2-8,38,36,34,36,34,31,96,93,86,30.49,30.31,24,-10,24,1.18
2014-2-9,41,36,32,39,35,30,97,95,87,30.48,30.37,11,-19,11,0.23
2014-2-10,43,36,28,37,33,27,97,90,77,30.60,30.40,8,-12,8,0.51
2014-2-11,46,37,24,33,24,10,95,63,29,30.65,30.55,9,-11,9,0.01
2014-2-12,57,47,39,26,16,1,41,29,17,30.58,30.41,19,-10,22,0.00
2014-2-13,53,47,42,40,34,18,80,62,36,30.45,30.36,11,-12,11,0.00
2014-2-14,58,51,42,37,20,8,79,32,19,30.38,30.24,15,-10,17,0.00
2014-2-15,56,46,34,34,17,5,93,39,15,30.25,30.14,24,-21,25,0.20
2014-2-16,49,38,26,34,27,19,94,66,36,30.53,30.17,15,-16,18,0.31
2014-2-17,51,36,22,29,19,7,76,52,18,30.53,30.42,11,-15,14,0.00
2014-2-18,50,38,25,34,21,7,70,50,25,30.55,30.31,10,-11,10,0.00
2014-2-19,44,38,27,32,23,6,85,58,25,30.50,30.26,21,-10,21,0.00
2014-2-20,46,35,24,34,26,18,86,69,46,30.59,30.49,5,-11,5,0.00
2014-2-21,46,36,25,36,27,18,82,71,56,30.52,30.36,8,-15,8,0.00
2014-2-22,44,35,24,35,28,20,87,77,67,30.42,30.33,6,-11,6,0.00
2014-2-23,44,35,23,33,27,18,85,74,54,30.48,30.39,5,-11,5,0.00
2014-2-24,46,36,23,39,28,16,85,72,51,30.49,30.37,5,-7,5,0.00
2014-2-25,47,38,25,38,30,21,89,75,54,30.45,30.29,5,-11,5,0.00
2014-2-26,50,40,31,37,33,26,94,76,55,30.33,30.01,17,-11,19,0.26
2014-2-27,41,34,27,34,29,24,95,84,66,30.14,29.96,14,-12,16,0.01
2014-2-28,46,34,27,38,31,24,96,89,66,30.10,29.75,14,-12,14,0.06
2014-3-1,47,36,26,36,30,23,94,79,54,30.20,29.86,9,-12,9,0.42
2014-3-2,46,36,25,34,31,22,94,81,60,30.46,30.20,12,-11,14,0.01
2014-3-3,45,38,30,36,33,26,95,83,63,30.48,30.35,13,-14,13,0.09
2014-3-4,44,38,31,38,34,27,96,87,73,30.46,30.33,8,-10,8,0.10
2014-3-5,53,44,32,40,36,28,92,74,55,30.46,30.20,15,-10,15,0.03
2014-3-6,47,39,28,40,29,19,95,68,36,30.46,30.23,13,-11,22,0.43
2014-3-7,45,36,24,32,24,11,90,64,26,30.62,30.46,22,-10,25,0.00
2014-3-8,47,38,24,37,28,17,81,67,42,30.66,30.56,4,-15,5,0.00
2014-3-9,58,48,39,30,20,9,51,33,22,30.64,30.35,14,-11,17,0.00
2014-3-10,49,41,30,36,26,14,94,60,28,30.53,30.21,14,-10,22,0.12
2014-3-11,38,32,23,26,21,12,86,64,38,30.66,30.52,49,0,49,0.00
2014-3-12,44,36,28,22,18,14,66,49,30,30.66,30.50,29,0,44,0.00
2014-3-13,50,38,24,34,23,5,68,55,19,30.50,30.36,16,-10,16,0.00
2014-3-14,53,40,24,37,25,12,72,56,36,30.66,30.45,15,-10,16,0.00
2014-3-15,52,39,26,38,29,22,87,68,36,30.81,30.66,5,-10,5,0.00
2014-3-16,63,43,25,38,28,19,80,58,27,30.82,30.39,21,-10,21,0.00
2014-3-17,49,43,29,35,23,2,64,46,19,30.43,30.17,26,-7,30,0.00
2014-3-18,44,34,22,25,17,12,68,50,32,30.47,30.29,20,-12,20,0.00
2014-3-19,50,37,22,36,24,11,75,59,42,30.54,30.44,14,-11,14,0.00
2014-3-20,51,40,28,36,29,20,80,65,40,30.48,30.28,9,-9,10,0.00
2014-3-21,52,39,26,37,28,20,80,67,42,30.34,30.24,10,-14,10,0.00
2014-3-22,47,37,25,34,25,17,80,62,36,30.51,30.33,13,-9,14,0.00
2014-3-23,56,39,24,34,25,14,86,59,24,30.57,30.48,8,-13,8,0.00
2014-3-24,54,40,24,39,27,15,70,60,41,30.59,30.45,6,-10,7,0.00
2014-3-25,53,41,31,32,24,17,94,53,29,30.45,30.00,18,-10,27,0.00
2014-3-26,40,33,28,32,29,25,94,85,65,30.19,29.93,13,-15,13,0.02
2014-3-27,44,35,27,29,26,22,87,71,51,30.46,30.19,15,-10,15,0.08
2014-3-28,48,40,30,34,29,25,83,66,43,30.50,30.34,15,-10,15,0.00
2014-3-29,44,38,31,36,33,28,95,83,63,30.35,30.17,21,-13,21,0.01
2014-3-30,42,34,23,32,26,19,94,76,53,30.39,30.17,11,-12,12,0.56
2014-3-31,42,32,23,30,25,18,93,77,46,30.35,30.03,15,-10,15,0.01
2014-4-1,36,29,19,27,21,12,86,72,54,30.22,30.14,17,-12,22,0.01
2014-4-2,39,32,22,31,24,18,91,73,51,30.44,30.18,18,-13,19,0.02
2014-4-3,45,34,22,29,25,18,90,69,43,30.44,30.34,14,-10,14,0.00
2014-4-4,47,37,28,29,24,14,81,62,30,30.34,30.20,11,-18,11,0.00
2014-4-5,47,36,24,33,26,18,83,68,40,30.58,30.30,9,-9,9,0.00
2014-4-6,53,41,26,39,31,22,88,69,52,30.66,30.55,22,-9,22,0.00
2014-4-7,57,43,27,41,33,23,87,68,40,30.62,30.53,6,-10,6,0.00
2014-4-8,67,47,30,44,35,27,91,67,26,30.58,30.41,10,-10,10,0.00
2014-4-9,65,51,34,39,31,23,73,47,23,30.42,30.26,11,-10,11,0.00
2014-4-10,61,45,28,42,32,20,77,62,31,30.36,30.28,5,-10,5,0.00
2014-4-11,59,46,31,45,37,26,83,71,47,30.35,30.15,7,-10,7,0.00
2014-4-12,64,48,33,47,36,27,90,66,34,30.19,30.07,8,-14,8,0.00
2014-4-13,54,45,32,34,23,10,83,44,21,30.46,30.17,23,-6,25,0.00
2014-4-14,62,44,25,44,29,14,80,56,34,30.48,30.39,10,-13,10,0.00
2014-4-15,65,48,33,43,32,24,82,56,27,30.43,30.18,9,-10,11,0.00
2014-4-16,61,48,31,47,34,21,77,61,42,30.22,30.12,11,-13,11,0.00
2014-4-17,66,50,32,45,36,28,85,62,31,30.21,30.03,14,-10,14,0.00
2014-4-18,61,49,39,46,40,32,93,72,44,30.19,30.05,15,-10,15,0.03
2014-4-19,64,49,34,42,32,20,94,58,25,30.37,30.17,10,-14,11,0.04
2014-4-20,65,46,27,38,28,18,72,53,18,30.46,30.37,7,-9,8,0.00
2014-4-21,64,47,32,42,28,21,78,52,22,30.44,30.14,22,-10,32,0.00
2014-4-22,44,36,32,33,28,20,95,74,42,30.36,30.01,18,-10,18,0.26
2014-4-23,53,39,26,37,28,19,85,65,45,30.44,30.34,10,-9,11,0.00
2014-4-24,57,46,30,34,29,20,80,54,36,30.40,30.13,18,-10,18,0.00
2014-4-25,39,34,29,34,32,27,94,91,78,30.13,29.93,12,-10,14,0.37
2014-4-26,44,36,27,32,26,21,93,68,45,30.32,30.04,16,-11,16,0.26
2014-4-27,50,39,31,32,24,12,77,56,38,30.40,30.28,13,1,13,0.00
2014-4-28,53,41,24,36,24,15,76,53,30,30.64,30.39,22,-11,23,0.00
2014-4-29,57,48,28,34,25,17,73,43,25,30.68,30.57,33,-6,33,0.00
2014-4-30,63,51,32,34,21,9,58,33,13,30.61,30.47,29,-5,30,0.00
2014-5-1,68,49,30,46,31,19,68,51,29,30.53,30.46,7,-13,8,0.00
2014-5-2,71,51,32,44,31,21,78,50,20,30.51,30.30,8,-10,9,0.00
2014-5-3,68,57,46,29,22,17,46,27,16,30.30,30.03,17,-9,19,0.00
2014-5-4,63,54,45,37,32,24,65,44,28,30.12,29.99,19,-9,19,0.00
2014-5-5,56,46,34,34,29,23,89,52,35,30.12,29.98,17,-9,18,0.00
2014-5-6,46,38,30,34,31,25,94,76,47,30.22,30.00,20,-6,20,0.03
2014-5-7,57,43,29,38,31,26,89,66,38,30.27,30.19,8,1,8,0.00
2014-5-8,58,46,33,38,33,25,88,64,35,30.27,30.21,13,-9,14,0.03
2014-5-9,59,47,38,38,33,27,90,62,33,30.29,30.22,17,2,17,0.08
2014-5-10,52,41,32,33,24,13,94,54,30,30.38,30.14,30,4,31,0.00
2014-5-11,59,40,31,34,26,20,76,58,28,30.53,30.38,33,10,33,0.00
2014-5-12,34,31,30,23,20,19,66,63,62,30.56,30.53,4,1,4,0.00
2014-5-21,50,43,39,43,40,38,96,91,70,30.35,30.31,19,1,19,0.06
2014-5-22,59,47,38,45,39,36,97,75,52,30.41,30.28,25,5,26,0.15
2014-5-23,72,52,35,49,40,27,89,66,24,30.40,30.25,7,1,7,0.00
2014-5-24,69,56,41,53,44,36,83,66,41,30.27,30.17,9,1,9,0.00
2014-5-25,79,58,44,54,46,33,92,67,30,30.27,30.16,7,1,8,0.00
2014-5-26,77,57,37,49,34,24,74,46,17,30.27,30.21,14,1,16,0.00
2014-5-27,75,63,52,30,24,18,32,24,14,30.25,30.05,17,1,18,0.00
2014-5-28,68,57,41,39,20,2,57,26,9,30.17,30.05,12,1,12,0.00
2014-5-29,62,49,32,42,28,16,62,45,24,30.25,30.17,16,2,16,0.00
2014-5-30,71,53,36,44,29,17,72,45,15,30.24,30.13,10,1,12,0.00
2014-5-31,71,52,34,46,32,20,68,46,24,30.24,30.16,15,1,15,0.00
2014-6-1,74,52,34,48,34,20,62,50,25,30.24,30.12,15,1,17,0.00
2014-6-2,73,55,38,47,36,27,70,51,19,30.16,30.03,15,1,16,0.00
2014-6-3,75,54,35,47,35,23,68,51,25,30.19,30.12,17,2,18,0.00
2014-6-4,75,55,38,52,39,22,73,56,28,30.22,30.13,10,2,10,0.00
2014-6-5,77,59,42,54,42,32,70,56,25,30.20,30.05,7,1,7,0.00
2014-6-6,72,59,44,54,42,27,79,57,20,30.10,30.01,28,1,28,0.00
2014-6-7,82,61,45,53,43,35,71,53,21,30.13,30.03,12,1,13,0.00
2014-6-8,81,62,46,52,40,30,68,46,25,30.19,30.06,25,3,25,0.00
2014-6-9,84,64,45,54,40,31,64,45,16,30.13,29.98,10,1,10,0.00
2014-6-10,77,62,46,56,43,34,64,51,34,30.04,29.94,8,1,10,0.00
2014-6-11,80,63,46,56,43,36,70,51,23,30.05,29.99,13,1,14,0.00
2014-6-12,75,64,53,38,28,20,54,27,16,30.04,29.95,24,1,24,0.00
2014-6-13,68,58,44,35,21,9,40,25,13,30.16,29.97,10,1,15,0.00
2014-6-14,65,52,35,45,32,20,61,47,31,30.19,30.10,12,2,12,0.00
2014-6-15,69,56,42,38,30,15,53,37,26,30.10,29.94,14,1,15,0.00
2014-6-16,65,56,47,38,32,25,57,41,27,29.99,29.88,15,1,17,0.00
2014-6-17,65,50,42,41,34,26,73,56,30,30.25,29.97,31,4,34,0.00
2014-6-18,72,52,34,48,34,25,73,50,32,30.30,30.22,9,2,14,0.00
2014-6-19,78,57,36,50,35,23,65,46,17,30.32,30.25,13,1,14,0.00
2014-6-20,78,64,50,46,30,19,60,30,15,30.28,30.09,10,1,10,0.00
2014-6-21,79,62,47,50,27,14,66,30,11,30.12,30.03,11,0,11,0.00
2014-6-22,79,57,38,47,32,16,60,40,19,30.19,30.09,14,1,15,0.00
2014-6-23,80,59,40,50,36,23,63,44,20,30.22,30.13,11,1,12,0.00
2014-6-24,77,60,43,50,38,23,67,45,23,30.20,30.11,13,1,13,0.00
2014-6-25,76,60,43,50,39,32,69,48,22,30.15,30.02,10,1,16,0.00
2014-6-26,66,56,48,46,42,39,82,60,41,30.14,29.98,11,1,13,0.00
2014-6-27,73,60,48,49,41,36,70,51,28,30.15,30.10,13,1,13,0.00
2014-6-28,81,58,39,51,38,21,70,47,22,30.19,30.11,9,1,10,0.00
2014-6-29,81,61,44,56,41,19,68,47,31,30.22,30.11,11,1,12,0.00
2014-6-30,84,64,47,56,44,32,71,50,22,30.22,30.08,7,1,7,0.00
2014-7-1,82,66,51,57,45,34,59,46,22,30.11,29.98,26,1,26,0.00
2014-7-2,85,66,48,58,45,36,75,51,23,30.10,30.03,13,1,13,0.00
2014-7-3,84,65,49,57,44,33,74,48,24,30.16,30.07,16,2,18,0.00
2014-7-4,84,66,46,56,40,31,74,42,16,30.22,30.14,12,1,13,0.00
2014-7-5,85,65,47,58,44,33,74,49,19,30.30,30.22,17,2,17,0.00
2014-7-6,81,64,47,57,40,22,60,42,20,30.33,30.16,6,1,6,0.00
2014-7-7,82,66,50,59,46,35,67,49,26,30.22,30.08,15,1,15,0.00
2014-7-8,78,68,61,61,53,47,76,60,40,30.13,30.04,16,-10,17,0.00
2014-7-9,86,67,51,59,48,41,74,53,24,30.17,30.04,16,-8,16,0.00
2014-7-10,78,65,51,58,47,37,62,52,32,30.12,29.99,14,1,14,0.00
2014-7-11,80,67,58,56,49,44,64,54,37,30.20,30.06,10,1,10,0.00
2014-7-12,81,66,51,62,52,44,76,62,36,30.25,30.17,10,2,10,0.00
2014-7-13,87,69,54,64,52,44,76,58,24,30.25,30.12,11,1,11,0.00
2014-7-14,90,70,54,61,50,38,66,51,19,30.17,30.07,15,1,15,0.00
2014-7-15,84,70,60,61,52,46,67,53,31,30.14,30.02,13,2,13,0.00
2014-7-16,86,69,56,63,54,46,70,60,34,30.14,30.02,13,2,13,0.00
2014-7-17,78,66,57,62,56,48,88,71,37,30.10,30.01,19,1,19,0.06
2014-7-18,79,64,51,66,56,47,92,76,47,30.17,30.06,13,1,13,0.18
2014-7-19,77,66,53,64,54,42,90,67,31,30.15,30.06,8,1,9,0.18
2014-7-20,73,62,54,60,53,47,95,74,53,30.18,30.03,11,1,11,0.31
2014-7-21,76,61,48,57,52,47,95,74,42,30.26,30.17,13,2,13,0.08
2014-7-22,78,62,50,57,50,46,86,66,37,30.27,30.16,12,2,12,0.00
2014-7-23,80,65,50,48,42,36,79,48,25,30.26,30.16,11,1,11,0.00
2014-7-24,77,61,44,56,44,31,67,54,34,30.22,30.10,13,2,13,0.00
2014-7-25,83,64,45,55,42,34,67,48,22,30.18,30.09,18,2,18,0.00
2014-7-26,84,63,45,58,43,29,63,49,19,30.25,30.18,10,1,10,0.00
2014-7-27,84,67,53,59,47,32,66,48,32,30.27,30.14,11,2,11,0.00
2014-7-28,80,68,55,59,47,40,65,48,30,30.26,30.17,13,1,13,0.00
2014-7-29,80,68,58,59,49,41,85,54,29,30.25,30.16,11,1,12,0.06
2014-7-30,77,63,51,58,50,45,80,64,34,30.30,30.22,13,1,14,0.06
2014-7-31,78,64,50,62,52,44,81,65,45,30.29,30.16,15,2,16,0.00
2014-8-1,86,67,55,62,49,37,73,55,19,30.22,30.10,13,1,13,0.00
2014-8-2,86,67,49,59,43,35,64,44,21,30.20,30.09,14,2,14,0.00
2014-8-3,74,65,56,57,44,37,63,47,35,30.17,30.06,7,1,7,0.00
2014-8-4,63,58,56,56,52,43,88,79,48,30.22,30.10,17,3,17,0.09
2014-8-5,64,58,52,55,52,48,94,80,65,30.26,30.21,11,1,12,0.00
2014-8-6,71,60,49,57,50,44,87,70,45,30.29,30.20,17,3,18,0.00
2014-8-7,73,61,47,58,51,42,88,71,47,30.24,30.13,13,2,13,0.00
2014-8-8,82,64,48,59,49,42,85,62,29,30.19,30.08,16,2,17,0.00
2014-8-9,78,60,45,58,44,33,66,57,32,30.19,30.10,17,3,18,0.00
2014-8-10,74,61,49,58,52,43,95,77,36,30.28,30.16,15,2,15,0.20
2014-8-11,72,57,44,59,52,42,96,83,52,30.31,30.24,15,1,16,0.33
2014-8-12,77,62,45,57,48,43,100,64,31,30.27,30.12,16,1,17,0.34
2014-8-13,73,64,55,48,44,40,74,50,31,30.12,30.04,16,1,18,0.00
2014-8-14,77,62,42,49,44,36,81,54,29,30.14,30.07,11,0,11,0.00
2014-8-15,77,63,46,55,44,32,77,53,23,30.23,30.14,14,2,15,0.00
2014-8-16,81,62,46,55,44,35,71,53,24,30.28,30.19,12,2,13,0.00
2014-8-17,82,63,44,53,39,30,70,45,17,30.28,30.12,13,1,15,0.00
2014-8-18,80,62,43,52,40,24,63,44,24,30.13,29.98,16,2,16,0.00
2014-8-19,78,62,46,51,40,32,62,46,25,30.05,29.91,7,1,7,0.00
2014-8-20,78,62,46,54,44,36,70,54,32,30.10,29.99,14,1,15,0.00
2014-8-21,77,62,46,52,44,37,76,54,29,30.15,30.09,15,2,15,0.00
2014-8-22,76,63,50,42,37,29,61,40,22,30.14,30.00,14,1,20,0.00
2014-8-23,72,59,41,54,40,28,64,50,28,30.17,30.08,19,3,20,0.00
2014-8-24,72,60,43,55,41,28,65,51,37,30.13,29.98,15,2,17,0.00
2014-8-25,69,56,44,54,43,36,94,64,31,30.20,29.99,18,3,19,0.26
2014-8-26,70,57,41,51,45,39,95,65,39,30.30,30.20,13,2,13,0.26
2014-8-27,77,60,42,59,46,34,75,62,31,30.36,30.25,10,2,10,0.00
2014-8-28,75,63,48,61,50,40,79,63,45,30.32,30.15,11,2,11,0.00
2014-8-29,77,63,48,56,45,32,76,55,22,30.20,30.09,8,1,9,0.00
2014-8-30,80,68,57,43,35,30,43,30,18,30.13,29.95,13,1,13,0.00
2014-8-31,79,63,44,51,38,28,55,41,23,30.11,30.00,10,1,10,0.00
2014-9-1,76,61,44,58,44,32,69,54,31,30.13,30.04,8,1,9,0.00
2014-9-2,82,65,47,55,45,35,69,51,22,30.11,29.96,12,1,13,0.00
2014-9-3,74,62,44,54,42,27,65,49,26,30.02,29.91,12,2,15,0.00
2014-9-4,71,61,45,50,33,20,59,37,18,30.07,29.96,17,2,18,0.00
2014-9-5,71,60,42,58,38,23,66,45,22,30.19,30.07,14,2,15,0.00
2014-9-6,74,60,43,54,40,25,62,48,28,30.22,30.11,14,3,15,0.00
2014-9-7,81,62,42,52,32,23,62,37,14,30.16,30.03,15,1,16,0.00
2014-9-8,75,60,49,54,36,24,85,42,26,30.15,29.99,8,0,10,0.02
2014-9-9,71,58,38,45,34,22,55,42,26,30.25,30.14,6,1,7,0.00
2014-9-10,72,58,40,51,38,27,63,49,26,30.29,30.17,7,1,7,0.00
2014-9-11,74,60,43,58,40,28,62,48,34,30.27,30.13,8,1,8,0.00
2014-9-12,77,61,44,54,38,28,61,44,23,30.24,30.12,12,1,14,0.00
2014-9-13,79,61,44,53,38,28,62,43,23,30.19,30.06,9,0,10,0.00
2014-9-14,78,63,45,52,40,32,67,45,23,30.14,30.07,10,1,14,0.00
2014-9-15,82,64,47,58,44,38,80,52,26,30.16,30.09,14,1,14,0.00
2014-9-16,82,68,53,50,40,30,73,38,17,30.14,29.99,7,0,15,0.00
2014-9-17,79,67,52,43,36,26,52,33,23,30.04,29.87,12,1,15,0.00
2014-9-18,72,62,51,51,45,39,78,54,35,30.06,29.86,16,1,16,0.00
2014-9-19,70,59,46,51,43,37,92,59,32,30.16,30.05,27,4,27,0.01
2014-9-20,75,62,45,53,41,35,69,49,27,30.19,30.07,24,4,26,0.00
2014-9-21,61,57,49,50,43,39,73,60,49,30.26,30.10,6,0,6,0.00
2014-9-22,69,57,42,56,46,37,87,67,44,30.33,30.21,10,2,11,0.00
2014-9-23,77,60,42,48,38,32,81,51,20,30.26,30.14,9,1,11,0.00
2014-9-24,76,62,41,37,32,25,59,35,16,30.18,30.03,9,1,13,0.00
2014-9-25,67,53,40,48,37,20,94,59,29,30.16,29.95,15,1,23,0.15
2014-9-26,52,45,39,45,41,37,96,84,64,30.20,30.14,16,2,16,0.71
2014-9-27,46,41,35,44,39,33,97,92,79,30.22,30.14,17,2,19,0.08
2014-9-28,48,43,36,44,40,35,97,89,77,30.31,30.14,14,1,16,0.20
2014-9-29,62,48,32,44,39,31,96,74,48,30.39,30.27,8,1,9,0.00
2014-9-30,64,52,40,46,40,30,90,64,42,30.29,30.10,26,3,27,0.00
2014-10-1,60,48,35,37,31,24,82,54,27,30.41,30.18,22,2,26,0.00
2014-10-2,63,48,30,46,34,22,77,61,38,30.56,30.41,6,1,7,0.00
2014-10-3,65,51,34,47,36,26,72,58,41,30.60,30.48,7,1,7,0.00
2014-10-4,66,52,35,51,37,27,75,58,34,30.55,30.39,4,1,4,0.00
2014-10-5,67,52,36,48,36,27,73,54,29,30.45,30.34,4,0,4,0.00
2014-10-6,69,53,36,50,37,24,67,55,34,30.42,30.26,5,1,5,0.00
2014-10-7,68,54,39,54,39,29,76,59,31,30.32,30.18,15,1,16,0.00
2014-10-8,67,52,37,49,35,27,69,53,35,30.25,30.15,8,0,8,0.00
2014-10-9,64,51,36,46,35,27,76,56,33,30.32,30.19,10,2,11,0.00
2014-10-10,66,51,35,45,36,27,72,57,37,30.39,30.29,7,0,8,0.00
2014-10-11,68,52,36,52,35,22,74,55,29,30.41,30.28,7,1,7,0.00
2014-10-12,60,49,36,40,30,22,74,50,25,30.45,30.35,20,2,21,0.00
2014-10-13,62,51,34,49,36,24,74,58,42,30.47,30.31,5,1,5,0.00
2014-10-14,68,59,48,37,28,20,60,32,17,30.32,29.90,24,1,24,0.00
2014-10-15,51,48,43,40,37,34,78,67,56,30.25,29.87,13,1,15,0.00
2014-10-16,62,47,35,38,33,25,81,59,24,30.33,30.21,9,1,11,0.00
2014-10-17,58,47,35,44,32,20,77,58,37,30.29,30.15,12,2,12,0.00
2014-10-18,61,46,28,45,33,19,71,62,38,30.33,30.23,14,1,14,0.00
2014-10-19,65,49,32,46,34,24,76,58,27,30.28,30.17,15,1,15,0.00
2014-10-20,61,51,38,38,35,28,89,56,39,30.19,30.03,20,1,20,0.03
2014-10-21,55,45,34,38,31,20,88,60,30,30.33,30.15,12,1,12,0.03
2014-10-22,62,47,30,44,32,21,83,57,31,30.40,30.32,7,1,9,0.00
2014-10-23,64,53,41,33,29,24,53,40,26,30.35,30.21,11,1,16,0.00
2014-10-24,69,56,36,30,24,20,55,31,17,30.26,30.12,18,2,18,0.00
2014-10-25,57,44,35,40,31,21,93,65,26,30.35,29.99,22,1,30,0.01
2014-10-26,49,41,31,34,29,23,84,64,38,30.43,30.34,11,2,13,0.01
2014-10-27,50,39,25,35,30,22,87,70,49,30.45,30.35,7,1,7,0.00
2014-10-28,55,44,29,48,37,25,89,76,60,30.53,30.44,6,1,6,0.00
2014-10-29,55,45,33,47,39,30,92,78,63,30.54,30.40,5,1,5,0.00
2014-10-30,60,47,31,48,34,25,83,64,32,30.46,30.20,7,1,7,0.00
2014-10-31,58,47,36,38,32,27,92,60,36,30.20,29.83,20,1,20,0.05
2014-11-1,41,36,31,34,30,26,94,79,60,30.33,29.80,10,1,11,0.16
2014-11-2,40,35,26,30,24,17,85,64,40,30.58,30.33,23,7,25,0.00
2014-11-3,46,35,22,28,22,16,80,61,36,30.71,30.57,6,1,6,0.00
2014-11-4,53,41,26,38,30,19,86,67,39,30.76,30.66,4,1,5,0.00
2014-11-5,54,43,31,45,37,27,93,78,62,30.71,30.56,7,1,7,0.00
2014-11-6,65,51,31,43,32,28,90,52,27,30.62,30.51,11,1,12,0.00
2014-11-7,62,48,37,46,34,26,71,58,45,30.53,30.41,5,1,5,0.00
2014-11-8,54,45,32,45,36,26,83,71,56,30.57,30.47,4,1,4,0.00
2014-11-9,57,46,31,47,34,22,82,65,48,30.50,30.21,6,1,6,0.00
2014-11-10,59,47,32,45,30,19,74,53,29,30.22,30.09,9,1,9,0.00
2014-11-11,58,48,34,40,23,7,59,39,24,30.15,30.08,11,1,11,0.00
2014-11-12,56,46,30,34,17,6,76,32,17,30.22,30.15,9,1,10,0.01
2014-11-13,50,43,37,43,35,31,94,73,56,30.29,30.12,10,1,13,0.02
2014-11-14,51,42,35,32,27,17,82,58,33,30.35,30.28,10,1,10,0.00
2014-11-15,50,40,30,32,20,5,80,48,17,30.53,30.32,33,3,33,0.00
2014-11-16,41,31,21,25,18,14,78,60,41,30.75,30.53,24,2,25,0.00
2014-11-17,49,33,21,28,19,11,70,57,39,30.76,30.63,8,1,8,0.00
2014-11-18,48,37,20,34,24,10,68,58,44,30.66,30.52,6,1,6,0.00
2014-11-19,52,42,34,37,28,11,89,62,25,30.52,30.29,12,1,14,0.01
2014-11-20,48,38,29,34,30,22,95,76,38,30.41,30.24,8,0,8,0.06
2014-11-21,45,39,26,37,31,24,96,76,51,30.43,30.30,9,1,11,0.07
2014-11-22,49,40,27,44,34,23,93,77,57,30.52,30.21,17,2,18,0.10
2014-11-23,41,34,24,27,23,14,90,65,36,30.73,30.51,20,1,20,0.00
2014-11-24,45,34,23,27,22,18,84,65,36,30.90,30.72,5,1,5,0.00
2014-11-25,50,38,25,42,31,18,86,75,62,30.95,30.82,5,1,5,0.00
2014-11-26,50,42,27,44,35,23,89,76,61,30.85,30.64,4,1,5,0.00
2014-11-27,62,51,39,28,23,17,62,35,23,30.64,30.31,14,1,15,0.00
2014-11-28,56,49,44,19,6,-6,34,18,9,30.31,29.97,14,2,23,0.00
2014-11-29,46,40,33,38,32,13,93,75,29,30.08,29.98,26,1,28,0.16
2014-11-30,44,38,34,36,30,15,95,76,32,30.38,30.07,16,1,16,0.09
2014-12-1,49,39,27,35,32,24,94,78,52,30.51,30.38,11,1,12,0.10
2014-12-2,38,33,26,37,31,22,97,93,84,30.41,30.16,7,0,8,0.38
2014-12-3,44,40,36,40,37,34,96,90,82,30.21,30.10,13,1,16,0.09
2014-12-4,45,39,31,40,35,29,96,88,70,30.41,30.18,8,0,8,0.01
2014-12-5,49,40,29,40,35,27,96,84,61,30.46,30.38,10,0,10,0.01
2014-12-6,50,42,30,39,35,27,91,77,59,30.59,30.41,10,1,10,0.01
2014-12-7,45,37,26,36,31,23,89,79,63,30.64,30.53,5,1,5,0.00
2014-12-8,45,37,27,36,30,21,92,76,54,30.64,30.54,5,1,5,0.00
2014-12-9,48,38,28,42,35,24,94,89,79,30.62,30.49,11,1,11,0.01
2014-12-10,55,42,26,41,29,21,94,65,34,30.51,30.08,16,1,16,0.00
2014-12-11,50,45,38,34,29,23,82,54,36,30.07,29.67,18,4,32,0.01
2014-12-12,40,34,29,34,29,26,93,83,66,30.32,29.74,5,0,8,0.15
2014-12-13,38,31,24,28,25,19,91,77,58,30.51,30.32,8,1,8,0.00
2014-12-14,37,30,19,25,22,13,85,71,46,30.51,30.41,10,0,10,0.00
2014-12-15,39,33,25,30,26,19,88,75,56,30.41,30.21,13,0,16,0.01
2014-12-16,40,34,29,30,26,22,94,73,59,30.27,30.19,15,0,15,0.03
2014-12-17,39,32,28,28,26,24,90,76,59,30.42,30.19,10,0,11,0.00
2014-12-18,40,34,27,32,27,18,88,77,49,30.54,30.41,7,1,7,0.00
2014-12-19,43,36,33,34,29,11,95,78,37,30.52,30.40,14,1,14,0.13
2014-12-20,41,38,33,38,35,29,95,88,84,30.55,30.40,10,1,11,0.13
2014-12-21,50,43,32,43,38,30,94,83,70,30.60,30.52,16,1,16,0.00
2014-12-22,51,39,30,41,34,27,95,81,53,30.67,30.56,12,2,12,0.00
2014-12-23,46,36,27,40,33,25,95,88,78,30.68,30.57,7,1,7,0.01
2014-12-24,48,34,26,34,27,14,94,76,44,30.57,29.99,37,6,37,0.03
2014-12-25,27,25,22,20,17,10,82,69,61,30.53,30.26,25,7,25,0.03
2014-12-26,27,23,16,20,15,11,83,70,59,30.78,30.52,33,8,34,0.00
2014-12-27,38,27,12,25,17,7,84,67,49,30.83,30.73,4,1,4,0.01
2014-12-28,46,33,24,27,18,8,80,56,30,30.75,30.52,14,1,14,0.00
2014-12-29,44,32,20,20,8,-5,88,42,14,30.53,30.27,19,2,20,0.00
2014-12-30,24,18,16,19,13,8,86,78,68,30.61,30.31,38,14,38,0.00
2014-12-31,23,19,12,7,4,-2,68,51,39,30.90,30.71,31,16,35,0.00
2015-1-1,39,24,7,17,8,-3,74,52,29,30.73,30.62,19,2,20,0.00
2015-1-2,39,28,15,28,20,8,81,71,50,30.64,30.51,14,1,14,0.00